Airfield :
LOGIN :

Register | Disclaimer

   EN    FR    IT 

 










Legend :    VFR   Marginal VFR   IFR   Intensive IFR   Very Intensive IFR
Visi :
Ceiling :
>= 8 km
>= 3000ft
5 to 8 km
1000 to 3000 ft
1500m to 5 km
500 to 1000 ft
800 to 1500m
200 to 500 ft
< 800m
< 200 ft
Symbols :   Thunderstorms  Fog  Heavy snow  Heavy precipitations  Wind > 20 kt
SIGMETs :     Misc.  Thunderstorms  Icing  Turbulence  Mountain Waves  Volcanic Ashes






- Airport Elevation : 146 ft
- IATA code : RKE


EKRK - Roskilde Tune

CURRENT METAR :
  • 212320Z AUTO 12010KT 9999 BKN082/// 03/00 Q1026

EXPIRED METARs :
  • 212250Z AUTO 08003KT 9999 SCT077/// BKN100/// 03/M02 Q1026
  • 212220Z AUTO 17003KT 9999 FEW060/// BKN097/// 03/M01 Q1026
  • 212150Z AUTO 19002KT 9999 SCT064/// BKN130/// 03/M01 Q1026
  • 212120Z AUTO 22001KT 9999 OVC079/// 03/M01 Q1026
  • 212050Z AUTO 20003KT 9999 BKN095/// 03/00 Q1026
  • 212020Z AUTO 21001KT 9999 BKN093/// 04/M00 Q1026
  • 211950Z AUTO 26002KT 9999 OVC096/// 04/M01 Q1026
  • 211920Z AUTO 33001KT 9999 BKN093/// 04/M02 Q1026
  • 211850Z AUTO 36003KT 9999 OVC090/// 05/M03 Q1027

TAF TAF EKRK
Valid from the 22 at 00:00 until the 22 at 09:00 UTC


212327Z 2200/2209 13010KT CAVOK
TEMPO 2200/2209 2000 SHSN BKN010 SCT020CB
BECMG 2202/2205 34006KT



MET'MAP, your aeronautical weather chart ! - Copyright ORBIFLY December 2007 - Disclaimer

ORBIFLY MET'MAP TEAM :

Programming & Development : Alexandra Zaïnal
Original concept : Baudouin d'Aumeries
Technical & hardware support : Manuel Goepfert
Assistance : Marc-Olivier Méhu




SOURCES & CREDITS :

   NOAA